Terminal Aerodrome Forecast
Issued by NWS Cleveland, OH

Home | Current Version | Previous Version | Text Only | Print | Product List | Glossary Off
Versions: 1 2 3 4 5 6 7 8 9 10 11 12 13 14 15 16 17 18

000
FTUS41 KCLE 241412 AAA
TAFCAK
TAF AMD
KCAK 241412Z 2414/2512 34007KT P6SM BKN012
      TEMPO 2414/2416 BKN006
     FM241700 32010KT P6SM BKN020
     FM242100 33012KT P6SM BKN035
     FM250500 35005KT P6SM BKN025=

USA.gov is the U.S. government's official web portal to all federal, state and local government web resources and services.